KHHG

Huntington Municipal Airport

Huntington, Indiana, USA
METAR KHHG 151555Z AUTO 07009KT 10SM CLR 03/M03 A3011 RMK AO2 T00321028
Observed Flight Rules
Dec-15 @ 15:55 UTC (24 minutes ago) Visual Flight Rules
Wind Visibility Clouds
70° at 9 knots 10 miles
  • Clear skies
Temperatures Readings
Current 3°C / 37°F
Dewpoint -3°C / 27°F
Humidity 65%
Altimeter 30.11" Hg
Pressure 1020 hPa
Elevation 246
METAR KHHG 151555Z AUTO 07009KT 10SM CLR 03/M03 A3011 RMK AO2 T00321028
Observed Flight Rules
Dec-15 @ 15:55 UTC
(24 minutes ago)
VFR
Wind Visibility
70° at 9 knots 10 miles
Clouds
  • Clear skies
Temperature Dewpoint
3°C / 37°F -3°C / 27°F
Humidity Altimeter Pressure
65% 30.11" Hg 1020 hPa